This is the latest recevied weather packets stored in our database for station/object HP1CDW-13. If no packets are shown the sender has not sent any weather packets the latest 10 day(s).
| Time | Temp. | Humidity | Pressure | Rain* | Wind** | Luminosity | Snow |
|---|---|---|---|---|---|---|---|
| 1778172890 | 31.67° C | 72% | 1014.4 hPa | 0 mm | - | - | - |
| 1778172290 | 32.22° C | 70% | 1014.4 hPa | 0 mm | - | - | - |
| 1778171690 | 32.78° C | 69% | 1014.6 hPa | 0 mm | - | - | - |
| 1778171090 | 33.33° C | 65% | 1014.8 hPa | 0 mm | - | - | - |
| 1778170490 | 33.33° C | 63% | 1014.7 hPa | 0 mm | - | - | - |
| 1778169890 | 33.33° C | 63% | 1014.9 hPa | 0 mm | - | - | - |
| 1778169290 | 33.89° C | 64% | 1014.6 hPa | 0 mm | - | - | - |
| 1778168690 | 33.89° C | 65% | 1014.9 hPa | 0 mm | - | - | - |
| 1778168090 | 33.33° C | 64% | 1014.9 hPa | 0 mm | - | - | - |
| 1778167490 | 32.78° C | 66% | 1015.3 hPa | 0 mm | - | - | - |
| 1778166890 | 32.78° C | 66% | 1015.2 hPa | 0 mm | - | - | - |
| 1778166290 | 32.78° C | 67% | 1015.3 hPa | 0 mm | - | - | - |
| 1778165690 | 32.22° C | 70% | 1015.4 hPa | 0 mm | - | - | - |
| 1778165090 | 32.22° C | 72% | 1015.3 hPa | 0 mm | - | - | - |
| 1778164490 | 31.67° C | 73% | 1015.4 hPa | 0 mm | - | - | - |
| 1778163890 | 30.56° C | 75% | 1015.2 hPa | 0 mm | - | - | - |
| 1778163290 | 30.56° C | 75% | 1015.3 hPa | 0 mm | - | - | - |
| 1778162690 | 31.11° C | 73% | 1015.3 hPa | 0 mm | - | - | - |
| 1778162090 | 30.56° C | 74% | 1015.3 hPa | 0 mm | - | - | - |
| 1778161490 | 30.56° C | 75% | 1015.2 hPa | 0 mm | - | - | - |
| 1778160890 | 30° C | 77% | 1014.9 hPa | 0 mm | - | - | - |
| 1778160290 | 29.44° C | 77% | 1014.9 hPa | 0 mm | - | - | - |
| 1778159690 | 29.44° C | 79% | 1014.7 hPa | 0 mm | - | - | - |
| 1778159090 | 28.89° C | 79% | 1014.6 hPa | 0 mm | - | - | - |
| 1778158490 | 28.89° C | 81% | 1014.7 hPa | 0 mm | - | - | - |
* Rain latest hour (hover to see other rain measurements)
** Current wind speed in m/s (hover to see current wind gust speed)